createdAt,value
2018-03-08T00:01:05.818Z,68.60
2018-03-08T00:03:33.327Z,68.77
2018-03-08T00:06:00.834Z,68.25
2018-03-08T00:08:28.357Z,69.02
2018-03-08T00:10:55.878Z,69.62
2018-03-08T00:13:24.135Z,69.35
2018-03-08T00:15:51.651Z,69.12
2018-03-08T00:18:19.154Z,69.78
2018-03-08T00:20:46.686Z,68.63
2018-03-08T00:23:14.194Z,69.07
2018-03-08T00:25:41.921Z,69.42
2018-03-08T00:28:09.425Z,69.20
2018-03-08T00:30:36.938Z,69.05
2018-03-08T00:33:04.483Z,68.89
2018-03-08T00:35:32.094Z,69.29
2018-03-08T00:38:00.034Z,68.89
2018-03-08T00:40:27.538Z,68.21
2018-03-08T00:42:55.042Z,68.59
2018-03-08T00:45:22.582Z,67.37
2018-03-08T00:47:50.090Z,67.34
2018-03-08T00:50:17.648Z,67.78
2018-03-08T00:52:45.169Z,67.67
2018-03-08T00:55:12.679Z,67.44
2018-03-08T00:57:40.217Z,67.94
2018-03-08T01:00:07.722Z,67.13
2018-03-08T01:02:35.267Z,66.79
2018-03-08T01:05:02.781Z,66.74
2018-03-08T01:07:30.288Z,66.69
2018-03-08T01:09:57.822Z,66.06
2018-03-08T01:12:25.325Z,65.67
2018-03-08T01:14:52.865Z,66.17
2018-03-08T01:17:20.370Z,66.82
2018-03-08T01:19:47.926Z,66.47
2018-03-08T01:22:15.462Z,66.06
2018-03-08T01:24:43.051Z,66.26
2018-03-08T01:27:10.702Z,66.63
2018-03-08T01:29:38.210Z,66.68
2018-03-08T01:32:05.718Z,67.33
2018-03-08T01:34:34.178Z,67.50
2018-03-08T01:37:01.682Z,66.79
2018-03-08T01:39:29.622Z,66.16
2018-03-08T01:41:57.145Z,66.66
2018-03-08T01:44:24.654Z,66.27
2018-03-08T01:46:52.194Z,65.68
2018-03-08T01:49:19.703Z,65.53
2018-03-08T01:51:59.198Z,66.90
2018-03-08T01:54:26.703Z,66.76
2018-03-08T01:56:54.205Z,66.20
2018-03-08T01:59:21.762Z,66.59
2018-03-08T02:01:49.268Z,66.51
2018-03-08T02:04:16.814Z,67.69
2018-03-08T02:06:44.323Z,66.21
2018-03-08T02:09:11.834Z,67.92
2018-03-08T02:11:39.388Z,67.68
2018-03-08T02:14:06.890Z,66.79
2018-03-08T02:16:35.227Z,66.69
2018-03-08T02:19:02.730Z,68.00
2018-03-08T02:21:30.230Z,67.93
2018-03-08T02:23:58.022Z,67.17
2018-03-08T02:26:25.542Z,66.82
2018-03-08T02:28:53.418Z,67.61
2018-03-08T02:31:20.926Z,67.27
2018-03-08T02:33:48.439Z,67.06
2018-03-08T02:36:15.974Z,66.69
2018-03-08T02:38:43.484Z,66.68
2018-03-08T02:41:11.027Z,66.07
2018-03-08T02:43:38.546Z,66.42
2018-03-08T02:46:06.054Z,66.75
2018-03-08T02:48:33.653Z,65.82
2018-03-08T02:51:01.162Z,66.25
2018-03-08T02:53:28.707Z,65.88
2018-03-08T02:55:56.226Z,65.79
2018-03-08T02:58:23.743Z,66.67
2018-03-08T03:00:51.278Z,66.84
2018-03-08T03:03:18.798Z,66.57
2018-03-08T03:05:46.589Z,65.72
2018-03-08T03:08:14.097Z,66.39
2018-03-08T03:10:42.582Z,66.55
2018-03-08T03:13:11.032Z,66.76
2018-03-08T03:15:38.674Z,66.88
2018-03-08T03:18:06.426Z,66.99
2018-03-08T03:20:33.929Z,68.18
2018-03-08T03:23:01.443Z,66.48
2018-03-08T03:25:28.993Z,67.06
2018-03-08T03:27:56.713Z,66.46
2018-03-08T03:30:24.642Z,67.38
2018-03-08T03:32:52.154Z,67.93
2018-03-08T03:35:19.658Z,67.42
2018-03-08T03:37:47.281Z,68.11
2018-03-08T03:40:14.786Z,66.83
2018-03-08T03:42:42.588Z,67.63
2018-03-08T03:45:10.101Z,67.68
2018-03-08T03:47:37.604Z,67.24
2018-03-08T03:50:05.136Z,67.81
2018-03-08T03:52:32.664Z,67.90
2018-03-08T03:55:00.541Z,68.55
2018-03-08T03:57:28.045Z,68.38
2018-03-08T03:59:55.580Z,68.74
2018-03-08T04:02:23.111Z,67.91
2018-03-08T04:04:51.621Z,68.33
2018-03-08T04:07:19.611Z,68.27
2018-03-08T04:09:47.111Z,68.56
2018-03-08T04:12:15.663Z,67.66
2018-03-08T04:14:43.181Z,68.44
2018-03-08T04:17:10.783Z,67.18
2018-03-08T04:19:38.490Z,67.22
2018-03-08T04:22:06.004Z,67.88
2018-03-08T04:24:33.573Z,67.39
2018-03-08T04:27:01.114Z,67.50
2018-03-08T04:29:28.978Z,67.55
2018-03-08T04:31:57.743Z,67.18
2018-03-08T04:34:25.292Z,66.93
2018-03-08T04:36:52.852Z,66.95
2018-03-08T04:39:20.377Z,67.51
2018-03-08T04:41:47.901Z,67.58
2018-03-08T04:44:15.598Z,67.76
2018-03-08T04:46:43.111Z,68.08
2018-03-08T04:49:10.619Z,67.19
2018-03-08T04:51:38.149Z,66.75
2018-03-08T04:54:05.671Z,67.51
2018-03-08T04:56:33.615Z,67.93
2018-03-08T04:59:01.134Z,67.20
2018-03-08T05:01:28.642Z,68.45
2018-03-08T05:03:56.195Z,68.56
2018-03-08T05:06:23.708Z,68.22
2018-03-08T05:08:51.414Z,67.68
2018-03-08T05:11:18.920Z,67.25
2018-03-08T05:13:46.458Z,66.87
2018-03-08T05:16:14.016Z,67.13
2018-03-08T05:18:41.522Z,67.04
2018-03-08T05:21:09.206Z,66.50
2018-03-08T05:23:36.722Z,67.00
2018-03-08T05:26:04.249Z,67.17
2018-03-08T05:28:32.630Z,66.79
2018-03-08T05:31:00.131Z,67.37
2018-03-08T05:33:27.991Z,66.58
2018-03-08T05:35:55.494Z,67.25
2018-03-08T05:40:49.839Z,66.36
2018-03-08T05:43:17.350Z,66.56
2018-03-08T05:45:44.923Z,66.91
2018-03-08T05:48:12.430Z,67.30
2018-03-08T05:50:39.947Z,66.44
2018-03-08T05:53:07.481Z,66.15
2018-03-08T05:55:35.883Z,66.25
2018-03-08T05:58:03.443Z,66.12
2018-03-08T06:00:30.956Z,65.98
2018-03-08T06:02:58.497Z,66.98
2018-03-08T06:05:26.038Z,65.77
2018-03-08T06:07:53.552Z,66.58
2018-03-08T06:10:21.096Z,66.05
2018-03-08T06:12:49.603Z,67.41
2018-03-08T06:15:17.107Z,66.84
2018-03-08T06:17:44.635Z,66.76
2018-03-08T06:20:12.239Z,66.33
2018-03-08T06:22:40.045Z,65.73
2018-03-08T06:25:07.706Z,66.59
2018-03-08T06:27:35.382Z,66.70
2018-03-08T06:30:02.950Z,66.08
2018-03-08T06:32:30.462Z,65.93
2018-03-08T06:34:58.109Z,65.48
2018-03-08T06:37:25.700Z,65.12
2018-03-08T06:39:53.255Z,65.61
2018-03-08T06:42:21.810Z,65.06
2018-03-08T06:44:49.367Z,65.17
2018-03-08T06:47:17.324Z,65.18
2018-03-08T06:49:44.855Z,64.59
2018-03-08T06:52:12.368Z,64.85
2018-03-08T06:54:39.971Z,64.54
2018-03-08T06:57:08.061Z,64.79
2018-03-08T06:59:35.626Z,64.77
2018-03-08T07:02:03.160Z,65.34
2018-03-08T07:04:30.704Z,65.25
2018-03-08T07:06:58.266Z,65.57
2018-03-08T07:09:25.778Z,65.36
2018-03-08T07:11:53.578Z,65.02
2018-03-08T07:14:21.119Z,64.44
2018-03-08T07:16:48.756Z,63.95
2018-03-08T07:19:16.391Z,63.18
2018-03-08T07:21:43.915Z,63.01
2018-03-08T07:24:11.700Z,63.11
2018-03-08T07:26:39.221Z,62.73
2018-03-08T07:29:06.754Z,61.84
2018-03-08T07:31:34.288Z,62.04
2018-03-08T07:34:01.805Z,60.89
2018-03-08T07:36:29.690Z,61.20
2018-03-08T07:38:57.243Z,60.88
2018-03-08T07:41:24.769Z,60.92
2018-03-08T07:43:52.311Z,60.14
2018-03-08T07:46:19.830Z,60.18
2018-03-08T07:48:47.419Z,59.29
2018-03-08T07:51:15.093Z,58.95
2018-03-08T07:53:42.618Z,59.63
2018-03-08T07:56:10.212Z,58.95
2018-03-08T07:58:37.749Z,58.69
2018-03-08T08:01:05.392Z,58.35
2018-03-08T08:03:34.193Z,58.10
2018-03-08T08:06:14.164Z,58.12
2018-03-08T08:08:53.518Z,57.47
2018-03-08T08:11:21.091Z,56.93
2018-03-08T08:13:48.734Z,56.97
2018-03-08T08:16:16.265Z,56.90
2018-03-08T08:18:43.934Z,55.98
2018-03-08T08:21:11.545Z,54.97
2018-03-08T08:23:40.029Z,55.20
2018-03-08T08:26:07.575Z,55.42
2018-03-08T08:28:35.102Z,56.15
2018-03-08T08:31:02.654Z,56.16
2018-03-08T08:33:30.242Z,56.06
2018-03-08T08:35:58.066Z,55.50
2018-03-08T08:38:25.578Z,54.84
2018-03-08T08:40:53.110Z,54.04
2018-03-08T08:43:20.649Z,53.29
2018-03-08T08:45:48.285Z,53.38
2018-03-08T08:48:15.921Z,53.21
2018-03-08T08:50:43.438Z,53.07
2018-03-08T08:53:11.035Z,52.32
2018-03-08T08:55:38.726Z,51.11
2018-03-08T08:58:06.318Z,51.75
2018-03-08T09:00:33.947Z,51.16
2018-03-08T09:03:01.458Z,51.52
2018-03-08T09:05:28.988Z,51.77
2018-03-08T09:07:56.535Z,51.67
2018-03-08T09:10:24.167Z,50.56
2018-03-08T09:12:51.938Z,50.27
2018-03-08T09:15:19.623Z,50.39
2018-03-08T09:17:47.205Z,50.20
2018-03-08T09:20:14.858Z,48.54
2018-03-08T09:22:42.608Z,48.00
2018-03-08T09:25:10.513Z,47.25
2018-03-08T09:27:38.174Z,47.87
2018-03-08T09:30:05.805Z,46.00
2018-03-08T09:32:33.597Z,44.37
2018-03-08T09:35:01.254Z,41.20
2018-03-08T09:37:28.813Z,35.75
2018-03-08T09:39:56.322Z,30.05
2018-03-08T09:42:23.845Z,27.97
2018-03-08T09:44:51.403Z,27.13
2018-03-08T09:47:18.915Z,27.28
2018-03-08T09:49:46.986Z,24.27
2018-03-08T09:52:14.535Z,30.22
2018-03-08T09:54:42.304Z,29.48
2018-03-08T09:57:10.053Z,32.07
2018-03-08T09:59:37.571Z,34.04
2018-03-08T10:02:05.397Z,37.99
2018-03-08T10:04:32.958Z,34.87
2018-03-08T10:07:00.469Z,30.85
2018-03-08T10:09:28.190Z,29.69
2018-03-08T10:11:55.868Z,28.58
2018-03-08T10:14:23.575Z,27.56
2018-03-08T10:16:51.094Z,28.03
2018-03-08T10:19:18.620Z,27.89
2018-03-08T10:21:46.295Z,24.67
2018-03-08T10:24:13.817Z,22.07
2018-03-08T10:26:41.479Z,23.01
2018-03-08T10:29:08.990Z,21.01
2018-03-08T10:31:36.622Z,18.63
2018-03-08T10:34:04.217Z,19.19
2018-03-08T10:36:31.730Z,18.92
2018-03-08T10:38:59.313Z,19.38
2018-03-08T10:43:54.489Z,21.83
2018-03-08T10:46:22.062Z,24.69
2018-03-08T10:51:17.521Z,24.51
2018-03-08T10:53:45.062Z,23.02
2018-03-08T10:56:12.591Z,21.33
2018-03-08T10:58:40.148Z,23.08
2018-03-08T11:01:07.692Z,22.82
2018-03-08T11:03:42.277Z,24.40
2018-03-08T11:06:14.273Z,25.40
2018-03-08T11:08:41.850Z,27.72
2018-03-08T11:11:09.553Z,29.77
2018-03-08T11:13:37.621Z,30.82
2018-03-08T11:16:05.276Z,33.37
2018-03-08T11:18:32.790Z,32.95
2018-03-08T11:21:00.360Z,29.64
2018-03-08T11:23:27.881Z,28.54
2018-03-08T11:25:55.828Z,29.76
2018-03-08T11:28:23.409Z,29.74
2018-03-08T11:30:50.925Z,28.95
2018-03-08T11:33:18.468Z,28.67
2018-03-08T11:35:45.974Z,30.05
2018-03-08T11:38:14.040Z,29.15
2018-03-08T11:40:41.247Z,25.43
2018-03-08T11:43:08.886Z,23.54
2018-03-08T11:45:36.598Z,23.00
2018-03-08T11:48:04.113Z,21.04
2018-03-08T11:50:31.963Z,21.78
2018-03-08T11:52:59.737Z,22.18
2018-03-08T11:55:27.839Z,24.61
2018-03-08T11:57:55.377Z,22.71
2018-03-08T12:00:22.926Z,20.11
2018-03-08T12:02:50.959Z,21.81
2018-03-08T12:05:18.621Z,22.31
2018-03-08T12:07:46.179Z,23.21
2018-03-08T12:10:14.872Z,23.42
2018-03-08T12:12:42.731Z,23.24
2018-03-08T12:15:10.460Z,21.41
2018-03-08T12:17:37.986Z,21.34
2018-03-08T12:20:05.975Z,21.85
2018-03-08T12:22:33.791Z,20.57
2018-03-08T12:25:01.654Z,20.97
2018-03-08T12:27:29.726Z,20.73
2018-03-08T12:29:57.489Z,19.21
2018-03-08T12:32:25.218Z,20.62
2018-03-08T12:35:11.960Z,21.26
2018-03-08T12:37:39.994Z,19.43
2018-03-08T12:40:08.710Z,17.09
2018-03-08T12:42:36.419Z,16.64
2018-03-08T12:45:04.348Z,17.94
2018-03-08T12:47:32.034Z,17.19
2018-03-08T12:49:59.877Z,16.47
2018-03-08T12:52:27.744Z,16.07
2018-03-08T12:54:55.611Z,15.95
2018-03-08T12:57:23.479Z,17.08
2018-03-08T12:59:51.753Z,16.09
2018-03-08T13:02:19.620Z,16.21
2018-03-08T13:04:47.895Z,15.84
2018-03-08T13:07:15.934Z,14.70
2018-03-08T13:09:43.628Z,13.82
2018-03-08T13:12:11.906Z,13.92
2018-03-08T13:14:39.776Z,13.10
2018-03-08T13:17:09.280Z,13.62
2018-03-08T13:19:37.146Z,16.57
2018-03-08T13:22:04.804Z,16.85
2018-03-08T13:24:32.670Z,18.29
2018-03-08T13:27:00.435Z,18.31
2018-03-08T13:29:28.918Z,19.68
2018-03-08T13:31:56.782Z,21.85
2018-03-08T13:34:24.648Z,22.69
2018-03-08T13:36:53.233Z,21.92
2018-03-08T13:39:21.099Z,23.11
2018-03-08T13:41:48.850Z,22.52
2018-03-08T13:44:16.658Z,22.04
2018-03-08T13:46:44.288Z,23.32
2018-03-08T13:49:23.828Z,23.87
2018-03-08T13:51:51.489Z,23.99
2018-03-08T13:54:19.255Z,25.00
2018-03-08T13:56:47.122Z,25.11
2018-03-08T13:59:15.329Z,26.05
2018-03-08T14:01:43.161Z,25.25
2018-03-08T14:04:10.821Z,25.18
2018-03-08T14:06:38.461Z,24.37
2018-03-08T14:09:06.249Z,24.16
2018-03-08T14:11:34.115Z,24.71
2018-03-08T14:14:01.982Z,24.37
2018-03-08T14:16:29.642Z,25.07
2018-03-08T14:18:57.407Z,26.01
2018-03-08T14:21:25.171Z,25.67
2018-03-08T14:23:53.141Z,25.67
2018-03-08T14:26:20.907Z,26.18
2018-03-08T14:28:48.475Z,27.43
2018-03-08T14:31:16.331Z,27.73
2018-03-08T14:33:44.000Z,28.30
2018-03-08T14:36:12.165Z,28.01
2018-03-08T14:38:39.826Z,28.27
2018-03-08T14:41:07.598Z,28.17
2018-03-08T14:43:35.460Z,29.26
2018-03-08T14:46:03.325Z,30.31
2018-03-08T14:48:31.294Z,29.35
2018-03-08T14:51:00.593Z,29.26
2018-03-08T14:53:28.358Z,28.29
2018-03-08T14:55:56.297Z,28.68
2018-03-08T14:58:23.826Z,29.57
2018-03-08T15:00:51.651Z,28.30
2018-03-08T15:03:19.239Z,28.73
2018-03-08T15:05:46.881Z,28.18
2018-03-08T15:08:14.738Z,28.00
2018-03-08T15:10:42.399Z,27.42
2018-03-08T15:13:10.581Z,27.05
2018-03-08T15:15:38.543Z,26.62
2018-03-08T15:18:06.410Z,26.65
2018-03-08T15:20:34.377Z,27.08
2018-03-08T15:23:02.256Z,27.45
2018-03-08T15:25:30.828Z,27.58
2018-03-08T15:27:58.798Z,27.78
2018-03-08T15:30:27.484Z,27.92
2018-03-08T15:32:55.426Z,28.26
2018-03-08T15:35:23.114Z,28.07
2018-03-08T15:37:51.286Z,28.63
2018-03-08T15:40:19.663Z,28.93
2018-03-08T15:42:48.677Z,28.88
2018-03-08T15:45:16.626Z,29.45
2018-03-08T15:47:44.550Z,29.27
2018-03-08T15:50:12.564Z,29.40
2018-03-08T15:52:40.431Z,29.40
2018-03-08T15:55:08.606Z,29.07
2018-03-08T15:57:36.679Z,29.92
2018-03-08T16:00:04.610Z,30.06
2018-03-08T16:02:33.101Z,29.62
2018-03-08T16:05:03.593Z,30.03
2018-03-08T16:10:48.875Z,30.95
2018-03-08T16:13:17.226Z,30.75
2018-03-08T16:15:45.626Z,31.18
2018-03-08T16:18:14.300Z,31.26
2018-03-08T16:20:46.134Z,31.40
2018-03-08T16:23:15.044Z,31.57
2018-03-08T16:25:43.213Z,30.78
2018-03-08T16:28:11.082Z,32.03
2018-03-08T16:30:39.053Z,31.94
2018-03-08T16:33:06.918Z,31.72
2018-03-08T16:35:34.783Z,32.07
2018-03-08T16:38:02.752Z,31.37
2018-03-08T16:40:31.094Z,31.56
2018-03-08T16:42:59.100Z,31.84
2018-03-08T16:45:26.966Z,31.10
2018-03-08T16:47:55.242Z,31.33
2018-03-08T16:50:23.069Z,31.84
2018-03-08T16:52:50.974Z,31.35
2018-03-08T16:55:19.046Z,31.99
2018-03-08T16:57:47.126Z,32.23
2018-03-08T17:00:15.523Z,31.90
2018-03-08T17:02:43.466Z,31.98
2018-03-08T17:05:11.343Z,31.92
2018-03-08T17:07:39.775Z,33.38
2018-03-08T17:10:08.402Z,33.46
2018-03-08T17:12:36.435Z,33.80
2018-03-08T17:15:04.947Z,33.86
2018-03-08T17:17:33.839Z,34.80
2018-03-08T17:20:02.149Z,35.52
2018-03-08T17:22:30.294Z,36.19
2018-03-08T17:24:58.202Z,36.67
2018-03-08T17:27:27.044Z,36.50
2018-03-08T17:29:56.037Z,36.71
2018-03-08T17:32:24.928Z,37.04
2018-03-08T17:34:52.795Z,37.52
2018-03-08T17:37:20.662Z,38.04
2018-03-08T17:39:48.527Z,38.32
2018-03-08T17:42:16.394Z,38.20
2018-03-08T17:44:44.627Z,38.94
2018-03-08T17:47:12.655Z,38.92
2018-03-08T17:49:40.506Z,39.26
2018-03-08T17:52:08.475Z,39.47
2018-03-08T17:54:37.796Z,40.22
2018-03-08T17:57:05.958Z,40.54
2018-03-08T17:59:33.918Z,40.22
2018-03-08T18:02:02.704Z,40.70
2018-03-08T18:04:30.878Z,41.00
2018-03-08T18:06:59.059Z,40.88
2018-03-08T18:09:27.738Z,41.44
2018-03-08T18:11:55.604Z,42.00
2018-03-08T18:14:23.472Z,41.85
2018-03-08T18:16:51.445Z,42.13
2018-03-08T18:19:20.229Z,42.15
2018-03-08T18:21:48.813Z,42.84
2018-03-08T18:24:16.679Z,42.71
2018-03-08T18:26:44.910Z,42.72
2018-03-08T18:29:12.822Z,43.08
2018-03-08T18:31:41.915Z,43.48
2018-03-08T18:34:10.261Z,43.58
2018-03-08T18:36:41.846Z,43.84
2018-03-08T18:39:09.771Z,43.75
2018-03-08T18:41:38.810Z,44.13
2018-03-08T18:44:06.778Z,44.13
2018-03-08T18:46:35.156Z,44.83
2018-03-08T18:49:04.563Z,44.27
2018-03-08T18:51:32.604Z,44.40
2018-03-08T18:54:00.496Z,44.57
2018-03-08T18:56:28.258Z,44.73
2018-03-08T18:58:56.333Z,44.93
2018-03-08T19:01:24.144Z,44.73
2018-03-08T19:03:52.064Z,44.28
2018-03-08T19:06:19.714Z,44.78
2018-03-08T19:08:47.592Z,45.44
2018-03-08T19:11:15.563Z,45.38
2018-03-08T19:13:43.501Z,44.87
2018-03-08T19:16:12.321Z,44.96
2018-03-08T19:18:40.297Z,44.80
2018-03-08T19:21:08.150Z,44.70
2018-03-08T19:23:35.967Z,45.14
2018-03-08T19:26:03.990Z,45.08
2018-03-08T19:28:32.065Z,44.92
2018-03-08T19:31:00.135Z,45.06
2018-03-08T19:33:28.425Z,44.28
2018-03-08T19:35:56.379Z,44.56
2018-03-08T19:38:24.392Z,44.08
2018-03-08T19:40:52.584Z,43.76
2018-03-08T19:43:20.601Z,43.80
2018-03-08T19:45:48.459Z,43.63
2018-03-08T19:48:16.529Z,43.46
2018-03-08T19:50:44.780Z,43.62
2018-03-08T19:53:12.698Z,43.37
2018-03-08T19:55:41.665Z,43.15
2018-03-08T19:58:10.457Z,42.83
2018-03-08T20:00:38.423Z,42.51
2018-03-08T20:03:06.290Z,42.59
2018-03-08T20:05:34.672Z,41.98
2018-03-08T20:08:04.377Z,42.44
2018-03-08T20:10:32.246Z,42.64
2018-03-08T20:13:00.178Z,42.67
2018-03-08T20:15:28.082Z,42.53
2018-03-08T20:17:56.361Z,42.45
2018-03-08T20:20:24.221Z,42.14
2018-03-08T20:22:52.291Z,42.39
2018-03-08T20:25:20.261Z,42.81
2018-03-08T20:27:52.403Z,42.96
2018-03-08T20:30:21.351Z,42.25
2018-03-08T20:32:49.288Z,42.34
2018-03-08T20:35:17.185Z,43.11
2018-03-08T20:37:45.135Z,42.91
2018-03-08T20:40:12.991Z,43.03
2018-03-08T20:42:41.266Z,43.28
2018-03-08T20:45:09.620Z,42.78
2018-03-08T20:47:37.511Z,42.94
2018-03-08T20:50:05.994Z,43.26
2018-03-08T20:52:34.126Z,43.11
2018-03-08T20:55:02.412Z,43.31
2018-03-08T20:57:30.280Z,43.22
2018-03-08T20:59:59.142Z,42.73
2018-03-08T21:02:27.486Z,43.17
2018-03-08T21:04:55.499Z,43.06
2018-03-08T21:07:24.175Z,42.77
2018-03-08T21:09:54.148Z,42.70
2018-03-08T21:12:22.937Z,43.05
2018-03-08T21:14:50.801Z,42.78
2018-03-08T21:17:19.589Z,42.59
2018-03-08T21:19:48.377Z,42.66
2018-03-08T21:22:16.159Z,43.28
2018-03-08T21:24:44.520Z,42.92
2018-03-08T21:27:12.796Z,42.96
2018-03-08T21:29:40.782Z,42.53
2018-03-08T21:32:09.144Z,42.36
2018-03-08T21:34:37.011Z,42.46
2018-03-08T21:37:05.269Z,42.21
2018-03-08T21:39:33.153Z,42.97
2018-03-08T21:42:01.430Z,41.71
2018-03-08T21:44:29.501Z,41.29
2018-03-08T21:46:57.366Z,41.50
2018-03-08T21:49:25.355Z,41.95
2018-03-08T21:51:53.316Z,41.56
2018-03-08T21:54:21.274Z,41.37
2018-03-08T21:56:49.346Z,41.04
2018-03-08T21:59:17.213Z,40.98
2018-03-08T22:01:45.076Z,41.03
2018-03-08T22:04:13.076Z,40.80
2018-03-08T22:06:40.870Z,41.45
2018-03-08T22:09:08.937Z,40.52
2018-03-08T22:11:36.748Z,40.67
2018-03-08T22:14:05.023Z,41.33
2018-03-08T22:16:32.993Z,43.90
2018-03-08T22:19:00.805Z,44.35
2018-03-08T22:21:28.828Z,44.71
2018-03-08T22:23:56.471Z,46.05
2018-03-08T22:26:24.655Z,48.96
2018-03-08T22:28:52.530Z,50.65
2018-03-08T22:31:20.396Z,51.75
2018-03-08T22:33:48.571Z,52.54
2018-03-08T22:36:16.762Z,53.13
2018-03-08T22:38:44.713Z,55.12
2018-03-08T22:41:12.580Z,55.38
2018-03-08T22:43:40.241Z,55.48
2018-03-08T22:46:08.210Z,55.53
2018-03-08T22:48:36.180Z,55.89
2018-03-08T22:51:03.841Z,56.30
2018-03-08T22:53:32.170Z,56.55
2018-03-08T22:56:00.354Z,57.35
2018-03-08T22:58:28.242Z,57.83
2018-03-08T23:00:55.741Z,56.72
2018-03-08T23:03:29.398Z,58.27
2018-03-08T23:05:56.928Z,57.66
2018-03-08T23:08:24.446Z,57.35
2018-03-08T23:13:24.874Z,57.79
2018-03-08T23:15:52.415Z,58.13
2018-03-08T23:18:20.176Z,57.67
2018-03-08T23:20:47.763Z,57.34
2018-03-08T23:23:15.294Z,58.39
2018-03-08T23:25:42.799Z,58.40
2018-03-08T23:28:10.513Z,57.76
2018-03-08T23:30:38.886Z,57.91
2018-03-08T23:33:06.390Z,57.22
2018-03-08T23:35:33.936Z,57.35
2018-03-08T23:38:01.498Z,56.92
2018-03-08T23:40:29.270Z,56.94
2018-03-08T23:42:56.766Z,57.69
2018-03-08T23:45:24.284Z,58.08
2018-03-08T23:47:51.817Z,59.28
2018-03-08T23:50:19.321Z,59.34
2018-03-08T23:52:47.609Z,59.32
2018-03-08T23:55:16.425Z,58.40
2018-03-08T23:57:43.929Z,57.79
